This is the latest recevied weather packets stored in our database for station/object W1RCY. If no packets are shown the sender has not sent any weather packets the latest 1 day(s).
| Time | Temp. | Humidity | Pressure | Rain* | Wind** | Luminosity | Snow |
|---|---|---|---|---|---|---|---|
| 1836274797 | 12.78° C | 66% | 1018.8 hPa | 0 mm | 0.89 m/s, 241° | 0 W/m² | - |
| 1836274495 | 12.78° C | 67% | 1018.9 hPa | 0 mm | 0.89 m/s, 270° | 0 W/m² | - |
| 1836274348 | 12.78° C | 66% | 1019.2 hPa | 0 mm | 0.89 m/s, 267° | 0 W/m² | - |
| 1836274192 | 12.78° C | 67% | 1018.7 hPa | 0 mm | 0.45 m/s, 303° | 0 W/m² | - |
| 1836273886 | 12.78° C | 67% | 1018.6 hPa | 0 mm | 1.79 m/s, 325° | 0 W/m² | - |
| 1778058767 | 15° C | 80% | 1007.3 hPa | 0 mm | 1.79 m/s, 199° | 0 W/m² | - |
| 1778058464 | 15° C | 80% | 1007.3 hPa | 0 mm | 1.79 m/s, 189° | 0 W/m² | - |
| 1778058161 | 15° C | 80% | 1007.3 hPa | 0 mm | 0.89 m/s, 177° | 0 W/m² | - |
| 1778057858 | 15° C | 79% | 1007.3 hPa | 0 mm | 0.89 m/s, 235° | 0 W/m² | - |
| 1778057554 | 15° C | 80% | 1007.5 hPa | 0 mm | 1.34 m/s, 181° | 0 W/m² | - |
| 1778057251 | 15° C | 79% | 1007.6 hPa | 0 mm | 2.24 m/s, 178° | 0 W/m² | - |
| 1778056947 | 15.56° C | 79% | 1007.7 hPa | 0 mm | 1.34 m/s, 198° | 0 W/m² | - |
| 1778056644 | 15.56° C | 78% | 1007.5 hPa | 0 mm | 1.79 m/s, 171° | 0 W/m² | - |
| 1778056342 | 15.56° C | 78% | 1007.4 hPa | 0 mm | 1.79 m/s, 196° | 0 W/m² | - |
| 1778056039 | 15.56° C | 77% | 1007.3 hPa | 0 mm | 1.34 m/s, 174° | 0 W/m² | - |
| 1778055735 | 15.56° C | 77% | 1007.3 hPa | 0 mm | 1.79 m/s, 185° | 0 W/m² | - |
| 1778055433 | 15.56° C | 77% | 1007.2 hPa | 0 mm | 2.68 m/s, 199° | 0 W/m² | - |
| 1778055130 | 15.56° C | 77% | 1006.8 hPa | 0 mm | 2.24 m/s, 172° | 0 W/m² | - |
| 1778054828 | 16.11° C | 76% | 1007.3 hPa | 0 mm | 2.24 m/s, 178° | 0 W/m² | - |
| 1778054524 | 16.11° C | 76% | 1007.3 hPa | 0 mm | 2.68 m/s, 227° | 0 W/m² | - |
| 1778054222 | 16.11° C | 76% | 1007.1 hPa | 0 mm | 2.24 m/s, 173° | 0 W/m² | - |
| 1778053918 | 16.11° C | 75% | 1007.1 hPa | 0 mm | 3.13 m/s, 176° | 0 W/m² | - |
| 1778053616 | 16.11° C | 76% | 1007.1 hPa | 0 mm | 2.24 m/s, 178° | 0 W/m² | - |
| 1778053313 | 16.11° C | 75% | 1007 hPa | 0 mm | 3.13 m/s, 175° | 0 W/m² | - |
| 1778053011 | 16.11° C | 76% | 1007.4 hPa | 0 mm | 3.13 m/s, 192° | 0 W/m² | - |
* Rain latest hour (hover to see other rain measurements)
** Current wind speed in m/s (hover to see current wind gust speed)